Monson, Maine
Current Conditions -  °F | °C
As of 1:36 AM on Thursday 27 Nov 2014 (Local Time) from KMLT Reporting Station
Light Snow Light Snow  
Wind Chill: 19°   Ceiling: 1000
Heat Index: 28°   Visibility: 1mi
Dew Point: 25°   Wind: 10mph
Humidity: 88%   Direction: 360°N
Pressure: 29.83"   Gusts: 18mph
Location:  45.29°N, 69.5°W
Report Text: KMLT 270636Z AUTO 36009G16KT 1SM -SN BR FEW006 OVC010 M02/M04 A2983 RMK AO2 P0001 T10221039
Loading
Personal Weather Stations






























Interactive Weather Map New forecast layout! Learn more

10-Day Weather Forecast

Advertisements
Track Severe Weather on mobile